Time;durP1;ratioP1;P1;durP2;ratioP2;P2;SDS_P1;SDS_P2;PMS_P1;PMS_P2;Temp;Humidity;BMP_temperature;BMP_pressure;BME280_temperature;BME280_humidity;BME280_pressure;Samples;Min_cycle;Max_cycle;Signal;HPM_P1;HPM_P2
2021/10/10 02:47:23;;;;;;;37.47;16.45;;;7.00;95.10;;;;;;4897040;24;20058;-80
2021/10/10 02:49:49;;;;;;;34.22;16.73;;;6.90;95.10;;;;;;4813840;29;20074;-81
2021/10/10 02:52:16;;;;;;;31.05;16.35;;;6.90;95.20;;;;;;4797563;29;20030;-81
2021/10/10 02:54:42;;;;;;;;;;;7.00;95.20;;;;;;4791955;29;20027;-81
2021/10/10 02:57:09;;;;;;;34.57;16.77;;;7.00;95.20;;;;;;4795437;29;19955;-80
2021/10/10 02:59:35;;;;;;;32.47;17.67;;;6.90;95.10;;;;;;4780490;29;20039;-80
2021/10/10 03:02:01;;;;;;;34.40;16.40;;;6.90;95.20;;;;;;4795362;29;20111;-80
2021/10/10 03:04:26;;;;;;;29.38;16.95;;;7.00;95.10;;;;;;4780513;29;20031;-81
2021/10/10 03:06:52;;;;;;;31.55;16.75;;;7.00;95.10;;;;;;4795297;29;20277;-80
2021/10/10 03:09:18;;;;;;;28.85;16.95;;;7.00;95.00;;;;;;4780432;29;20032;-80
2021/10/10 03:11:44;;;;;;;32.83;17.13;;;7.00;94.90;;;;;;4780287;29;20040;-80
2021/10/10 03:14:09;;;;;;;32.95;16.77;;;7.00;95.00;;;;;;4780348;29;20031;-80
2021/10/10 03:16:35;;;;;;;38.15;18.00;;;7.00;95.00;;;;;;4780062;29;20051;-80
2021/10/10 03:19:01;;;;;;;36.22;17.88;;;6.90;94.90;;;;;;4795147;29;20039;-80
2021/10/10 03:21:27;;;;;;;47.60;22.73;;;7.00;94.90;;;;;;4780199;29;20077;-80
2021/10/10 03:23:53;;;;;;;54.58;26.90;;;6.90;94.90;;;;;;4779934;29;20027;-80
2021/10/10 03:26:18;;;;;;;42.58;26.00;;;6.90;94.90;;;;;;4779872;29;20036;-80
2021/10/10 03:28:44;;;;;;;64.57;41.67;;;6.90;94.90;;;;;;4794869;29;20024;-80
2021/10/10 03:31:10;;;;;;;34.80;23.15;;;6.90;94.90;;;;;;4780861;29;20039;-80
2021/10/10 03:33:36;;;;;;;32.70;18.52;;;6.90;94.90;;;;;;4780063;30;20057;-80
2021/10/10 03:36:02;;;;;;;38.72;18.27;;;6.90;94.80;;;;;;4780099;29;20158;-80
2021/10/10 03:38:27;;;;;;;29.23;17.23;;;6.90;94.80;;;;;;4779811;29;20106;-80
2021/10/10 03:40:53;;;;;;;32.90;16.88;;;6.90;94.80;;;;;;4781102;30;20085;-80
2021/10/10 03:43:19;;;;;;;34.58;17.17;;;6.90;94.90;;;;;;4779826;29;20035;-80
2021/10/10 03:45:45;;;;;;;40.42;18.08;;;6.80;94.90;;;;;;4778277;29;20072;-80
2021/10/10 03:48:10;;;;;;;32.33;16.77;;;6.70;94.90;;;;;;4791658;29;20051;-80
2021/10/10 03:50:36;;;;;;;41.22;19.08;;;6.80;95.00;;;;;;4762006;30;20078;-81
2021/10/10 03:53:02;;;;;;;35.65;18.33;;;6.70;95.00;;;;;;4776665;29;20032;-81
2021/10/10 03:55:38;;;;;;;38.38;18.88;;;6.70;95.10;;;;;;4791613;29;20031;-80
2021/10/10 03:58:05;;;;;;;38.63;18.40;;;6.70;95.10;;;;;;4761836;30;20047;-80
2021/10/10 04:00:32;;;;;;;40.08;18.95;;;6.70;95.00;;;;;;4761972;30;20138;-80
2021/10/10 04:03:00;;;;;;;38.00;18.88;;;6.70;95.10;;;;;;4776149;30;20043;-80
2021/10/10 04:07:51;;;;;;;37.72;19.27;;;6.70;95.10;;;;;;4791272;29;20051;-80
2021/10/10 04:10:18;;;;;;;37.92;18.10;;;6.70;95.20;;;;;;4762520;30;20077;-80
2021/10/10 04:12:44;;;;;;;35.15;19.00;;;6.60;95.20;;;;;;4776214;29;20036;-80
2021/10/10 04:15:10;;;;;;;45.23;18.10;;;6.60;95.20;;;;;;4791272;29;20032;-80
2021/10/10 04:17:37;;;;;;;53.75;19.33;;;6.60;95.20;;;;;;4776162;29;20028;-80
2021/10/10 04:20:03;;;;;;;38.05;19.65;;;6.60;95.20;;;;;;4776290;30;20032;-80
2021/10/10 04:22:29;;;;;;;46.88;18.67;;;6.60;95.30;;;;;;4762412;30;20137;-80
2021/10/10 04:24:56;;;;;;;36.70;17.83;;;6.60;95.30;;;;;;4762449;30;20217;-80
2021/10/10 04:27:22;;;;;;;33.78;17.52;;;6.60;95.30;;;;;;4790839;29;20048;-80
2021/10/10 04:29:48;;;;;;;37.78;18.55;;;6.70;95.30;;;;;;4776216;30;20119;-80
2021/10/10 04:32:14;;;;;;;42.75;18.17;;;6.70;95.20;;;;;;4790921;29;20043;-80
2021/10/10 04:34:39;;;;;;;33.53;18.27;;;6.70;95.20;;;;;;4776111;29;20124;-80
2021/10/10 04:37:06;;;;;;;33.70;19.67;;;6.70;95.20;;;;;;4762209;30;20047;-80
2021/10/10 04:39:32;;;;;;;35.97;17.63;;;6.70;95.20;;;;;;4790812;29;20398;-80
2021/10/10 04:41:57;;;;;;;37.20;19.55;;;6.70;95.30;;;;;;4790785;29;20047;-80
2021/10/10 04:44:23;;;;;;;37.15;18.67;;;6.80;95.30;;;;;;4776016;29;20350;-80
2021/10/10 04:46:49;;;;;;;36.72;19.52;;;6.80;95.30;;;;;;4793363;29;20114;-80
2021/10/10 04:49:15;;;;;;;36.20;18.95;;;6.80;95.20;;;;;;4793893;29;20058;-80
2021/10/10 04:51:41;;;;;;;38.95;20.65;;;6.80;95.30;;;;;;4808730;29;20027;-80
2021/10/10 04:54:06;;;;;;;36.83;20.63;;;6.80;95.30;;;;;;4793761;29;20335;-80
2021/10/10 04:56:32;;;;;;;38.47;20.52;;;6.80;95.40;;;;;;4778836;30;20031;-80
2021/10/10 04:58:58;;;;;;;34.08;18.63;;;6.90;95.30;;;;;;4793650;29;20032;-80
2021/10/10 05:01:24;;;;;;;39.92;19.77;;;6.90;95.30;;;;;;4793605;29;20032;-80
2021/10/10 05:03:49;;;;;;;38.92;19.20;;;6.80;95.30;;;;;;4793523;29;20035;-80
2021/10/10 05:06:15;;;;;;;41.75;19.27;;;6.90;95.40;;;;;;4793958;29;20073;-80
2021/10/10 05:08:41;;;;;;;39.53;19.48;;;7.00;95.30;;;;;;4808560;29;20028;-80
2021/10/10 05:11:07;;;;;;;44.78;18.48;;;7.00;95.20;;;;;;4793583;29;20027;-79
2021/10/10 05:13:36;;;;;;;33.75;18.20;;;7.00;95.10;;;;;;4780156;30;20032;-80
2021/10/10 05:16:03;;;;;;;41.90;18.98;;;7.00;94.90;;;;;;4807438;29;20036;-81
2021/10/10 05:18:29;;;;;;;;;;;7.00;94.90;;;;;;4779582;29;20047;-80
2021/10/10 05:20:55;;;;;;;36.43;18.87;;;7.00;95.00;;;;;;4794242;29;19910;-80
2021/10/10 05:23:21;;;;;;;35.40;19.02;;;7.00;94.90;;;;;;4779060;29;20036;-80
2021/10/10 05:25:47;;;;;;;37.95;18.08;;;7.10;94.80;;;;;;4779120;29;20062;-81
2021/10/10 05:28:13;;;;;;;38.08;19.23;;;7.10;94.70;;;;;;4779097;29;20044;-80
2021/10/10 05:30:39;;;;;;;42.75;20.15;;;7.20;94.70;;;;;;4793990;29;20028;-80
2021/10/10 05:33:05;;;;;;;38.15;19.30;;;7.20;94.60;;;;;;4778805;29;20028;-80
2021/10/10 05:35:31;;;;;;;38.95;19.35;;;7.20;94.40;;;;;;4793943;29;20039;-80
2021/10/10 05:37:56;;;;;;;32.40;18.45;;;7.20;94.30;;;;;;4793843;29;20032;-80
2021/10/10 05:40:22;;;;;;;39.10;19.88;;;7.20;94.30;;;;;;4778872;29;20066;-80
2021/10/10 05:42:48;;;;;;;34.90;19.08;;;7.30;94.30;;;;;;4793921;29;20040;-80
2021/10/10 05:45:14;;;;;;;37.78;20.85;;;7.20;94.00;;;;;;4793711;29;20124;-80
2021/10/10 05:47:39;;;;;;;34.33;18.38;;;7.20;93.90;;;;;;4791649;29;20119;-80
2021/10/10 05:50:06;;;;;;;38.30;19.58;;;7.20;94.00;;;;;;4764361;30;20096;-80
2021/10/10 05:52:33;;;;;;;37.03;19.85;;;7.20;93.90;;;;;;4778044;29;20048;-80
2021/10/10 05:54:59;;;;;;;39.67;19.33;;;7.20;93.80;;;;;;4792899;29;20040;-80
2021/10/10 05:57:34;;;;;;;41.13;19.65;;;7.10;93.80;;;;;;4792882;29;20115;-80
2021/10/10 06:00:06;;;;;;;41.10;19.35;;;7.10;93.90;;;;;;4777927;29;20043;-80
2021/10/10 06:02:33;;;;;;;40.50;18.77;;;7.10;94.00;;;;;;4777716;30;20231;-80
2021/10/10 06:04:59;;;;;;;29.48;17.55;;;7.10;93.90;;;;;;4780341;29;20028;-80
2021/10/10 06:07:25;;;;;;;38.47;19.80;;;7.20;94.00;;;;;;4781596;30;20027;-80
2021/10/10 06:09:50;;;;;;;39.03;19.63;;;7.30;94.00;;;;;;4785324;30;20035;-80
2021/10/10 06:12:16;;;;;;;40.85;18.10;;;7.30;93.50;;;;;;4794894;29;20055;-81
2021/10/10 06:14:42;;;;;;;37.40;18.25;;;7.40;93.50;;;;;;4810417;29;20032;-80
2021/10/10 06:17:08;;;;;;;35.05;19.77;;;7.40;93.20;;;;;;4794450;29;20034;-80
2021/10/10 06:19:36;;;;;;;36.38;18.33;;;7.50;93.40;;;;;;4803491;29;20035;-80
2021/10/10 06:22:02;;;;;;;41.42;18.52;;;7.60;93.10;;;;;;4784153;29;20028;-80
2021/10/10 06:24:28;;;;;;;33.05;17.30;;;7.70;93.00;;;;;;4802341;29;20032;-80
2021/10/10 06:26:53;;;;;;;39.30;18.58;;;7.90;92.80;;;;;;4791242;29;20114;-80
2021/10/10 06:29:19;;;;;;;31.50;17.40;;;8.00;92.60;;;;;;4782461;30;20040;-80
2021/10/10 06:31:45;;;;;;;38.38;18.25;;;8.10;92.40;;;;;;4782241;29;20228;-80
2021/10/10 06:34:11;;;;;;;40.00;19.02;;;8.20;91.80;;;;;;4782866;29;20141;-80
2021/10/10 06:36:37;;;;;;;42.00;20.38;;;8.30;91.50;;;;;;4794346;29;20036;-80
2021/10/10 06:39:02;;;;;;;30.52;17.95;;;8.30;91.70;;;;;;4780369;29;20039;-79
2021/10/10 06:41:28;;;;;;;31.13;17.25;;;8.40;91.70;;;;;;4781928;29;20039;-80
2021/10/10 06:43:54;;;;;;;33.80;16.73;;;8.50;91.40;;;;;;4805468;29;20043;-80
2021/10/10 06:46:21;;;;;;;27.50;16.23;;;8.60;91.10;;;;;;4780463;30;20040;-80
2021/10/10 06:48:47;;;;;;;35.47;17.83;;;8.60;90.40;;;;;;4779236;30;20050;-80
2021/10/10 06:51:12;;;;;;;42.78;18.08;;;8.60;90.20;;;;;;4779526;29;20040;-80
2021/10/10 06:53:38;;;;;;;35.80;16.63;;;8.60;90.20;;;;;;4779727;29;20044;-80
2021/10/10 06:56:04;;;;;;;34.00;16.58;;;8.70;90.20;;;;;;4779700;29;20065;-80
2021/10/10 06:58:31;;;;;;;35.55;17.00;;;8.70;89.40;;;;;;4779165;30;20031;-80
2021/10/10 07:00:57;;;;;;;47.80;16.67;;;8.80;89.50;;;;;;4794709;29;20048;-81
2021/10/10 07:03:22;;;;;;;33.97;16.80;;;8.90;90.00;;;;;;4809694;29;20044;-80
2021/10/10 07:05:48;;;;;;;44.65;18.25;;;9.10;90.00;;;;;;4780865;29;20031;-80
2021/10/10 07:08:14;;;;;;;34.72;17.33;;;9.20;89.90;;;;;;4794363;29;20373;-81
2021/10/10 07:10:40;;;;;;;33.10;17.60;;;9.30;89.30;;;;;;4809452;29;20036;-81
2021/10/10 07:13:06;;;;;;;32.72;17.35;;;9.40;88.20;;;;;;4778626;30;20034;-80
2021/10/10 07:15:33;;;;;;;34.30;17.00;;;9.40;87.60;;;;;;4794740;29;20062;-80
2021/10/10 07:18:01;;;;;;;34.40;17.83;;;9.40;86.00;;;;;;4797305;29;20046;-81
2021/10/10 07:20:58;;;;;;;27.17;15.98;;;9.40;87.30;;;;;;4789002;29;20334;-81
2021/10/10 07:26:15;;;;;;;32.55;17.10;;;9.60;87.60;;;;;;4796916;29;20087;-80
2021/10/10 07:28:41;;;;;;;36.40;16.98;;;9.60;87.00;;;;;;4787818;29;20043;-80
2021/10/10 07:31:07;;;;;;;35.08;16.83;;;9.70;86.50;;;;;;4795164;29;20322;-80
2021/10/10 07:33:33;;;;;;;33.38;16.27;;;9.70;86.40;;;;;;4763718;30;20048;-80
2021/10/10 07:35:58;;;;;;;33.72;17.38;;;9.80;87.00;;;;;;4763375;30;20035;-80
2021/10/10 07:38:24;;;;;;;34.83;17.98;;;10.00;86.20;;;;;;4767206;30;20031;-80
2021/10/10 07:40:50;;;;;;;30.58;16.58;;;10.10;85.70;;;;;;4795573;29;20058;-80
2021/10/10 07:43:16;;;;;;;38.95;17.85;;;10.20;84.80;;;;;;4795695;29;20038;-80
2021/10/10 07:45:42;;;;;;;37.17;17.17;;;10.30;84.10;;;;;;4796343;29;20259;-80
2021/10/10 07:48:09;;;;;;;34.92;16.65;;;10.40;84.90;;;;;;4795517;30;20049;-80
2021/10/10 07:50:35;;;;;;;37.30;17.42;;;10.50;84.40;;;;;;4785065;29;20031;-80
2021/10/10 07:53:03;;;;;;;28.38;16.38;;;10.60;83.00;;;;;;4798814;29;20035;-80
2021/10/10 07:55:31;;;;;;;39.55;18.83;;;10.50;80.80;;;;;;4795894;29;20035;-80
2021/10/10 07:57:57;;;;;;;36.85;17.42;;;10.60;80.90;;;;;;4795596;29;20038;-80
2021/10/10 08:00:23;;;;;;;33.28;17.65;;;10.60;81.50;;;;;;4783246;29;20112;-81
2021/10/10 08:02:53;;;;;;;36.47;15.85;;;10.70;81.50;;;;;;4777523;29;20405;-80
2021/10/10 08:05:20;;;;;;;35.50;16.88;;;10.80;82.20;;;;;;4777715;29;20263;-80
2021/10/10 08:07:46;;;;;;;31.67;16.75;;;10.90;81.30;;;;;;4797103;29;20035;-80
2021/10/10 08:10:12;;;;;;;34.67;17.13;;;11.00;80.70;;;;;;4793089;29;20107;-80
2021/10/10 08:12:38;;;;;;;33.83;17.40;;;11.10;81.20;;;;;;4790892;29;20275;-80
2021/10/10 08:15:04;;;;;;;30.92;16.70;;;11.30;79.00;;;;;;4791959;29;20034;-80
2021/10/10 08:17:30;;;;;;;36.40;18.40;;;11.40;76.50;;;;;;4779221;30;20381;-81
2021/10/10 08:19:56;;;;;;;39.50;17.48;;;11.30;77.80;;;;;;4790834;29;20039;-81
2021/10/10 08:22:23;;;;;;;34.50;17.98;;;11.40;78.20;;;;;;4792514;29;20045;-81
2021/10/10 08:24:49;;;;;;;32.78;16.70;;;11.50;75.70;;;;;;4792368;29;20260;-80
2021/10/10 08:27:14;;;;;;;31.90;16.48;;;11.50;78.50;;;;;;4779156;30;20027;-81
2021/10/10 08:29:40;;;;;;;35.42;17.10;;;11.50;77.30;;;;;;4793334;29;20195;-80
2021/10/10 08:32:06;;;;;;;41.28;17.05;;;11.70;76.80;;;;;;4793338;29;20039;-80
2021/10/10 08:34:36;;;;;;;35.72;16.40;;;11.80;76.30;;;;;;4780746;29;20250;-80
2021/10/10 08:37:05;;;;;;;35.42;17.15;;;11.90;75.30;;;;;;4778263;29;20040;-78
2021/10/10 08:39:31;;;;;;;32.70;16.67;;;11.90;75.00;;;;;;4778213;29;20327;-79
2021/10/10 08:41:59;;;;;;;40.30;18.30;;;11.80;74.00;;;;;;4778210;29;20046;-79
2021/10/10 08:44:34;;;;;;;31.17;16.63;;;11.90;74.60;;;;;;4778153;29;20081;-79
2021/10/10 08:47:05;;;;;;;33.60;17.67;;;12.00;74.70;;;;;;4788612;29;20055;-79
2021/10/10 08:49:31;;;;;;;31.98;16.20;;;12.10;74.00;;;;;;4792652;29;20161;-80
2021/10/10 08:52:01;;;;;;;36.30;17.33;;;12.20;74.80;;;;;;4792563;29;20024;-80
2021/10/10 08:54:27;;;;;;;34.88;16.48;;;12.20;74.40;;;;;;4792824;29;20060;-79
2021/10/10 08:56:53;;;;;;;36.53;16.17;;;12.30;74.40;;;;;;4808141;29;20365;-79
2021/10/10 08:59:22;;;;;;;39.22;18.45;;;12.50;74.20;;;;;;4801082;29;20050;-79
2021/10/10 09:01:48;;;;;;;30.73;16.83;;;12.50;73.50;;;;;;4799301;29;20049;-79
2021/10/10 09:04:14;;;;;;;31.55;15.65;;;12.50;71.40;;;;;;4797735;29;20242;-80
2021/10/10 09:06:40;;;;;;;31.13;15.93;;;12.60;70.40;;;;;;4798233;29;20047;-78
2021/10/10 09:09:27;;;;;;;33.28;17.33;;;12.60;71.50;;;;;;4797668;29;20066;-79
2021/10/10 09:12:10;;;;;;;32.95;14.88;;;12.70;71.30;;;;;;4779620;30;20073;-78
2021/10/10 09:14:51;;;;;;;35.38;15.32;;;12.90;68.60;;;;;;4779970;30;20062;-78
2021/10/10 09:17:19;;;;;;;46.00;17.50;;;13.10;68.40;;;;;;4793905;29;20035;-79
2021/10/10 09:19:52;;;;;;;30.27;15.18;;;13.30;69.20;;;;;;4797852;29;20065;-79
2021/10/10 09:22:20;;;;;;;31.88;15.63;;;13.70;69.00;;;;;;4798077;29;20035;-79
2021/10/10 09:24:50;;;;;;;30.65;15.68;;;13.80;64.80;;;;;;4798015;29;20123;-79
2021/10/10 09:27:18;;;;;;;34.33;16.13;;;13.90;66.10;;;;;;4797607;29;20046;-78
2021/10/10 09:29:46;;;;;;;33.75;16.88;;;14.00;66.60;;;;;;4790394;29;20081;-78
2021/10/10 09:32:13;;;;;;;40.60;17.55;;;14.20;67.30;;;;;;4792255;29;20223;-78
2021/10/10 09:34:40;;;;;;;34.50;17.25;;;14.20;64.60;;;;;;4777715;30;20034;-77
2021/10/10 09:37:26;;;;;;;31.08;16.08;;;14.10;65.00;;;;;;4775359;30;20032;-78
2021/10/10 09:42:41;;;;;;;31.77;14.32;;;14.10;62.50;;;;;;4807620;29;20063;-79
2021/10/10 09:45:13;;;;;;;32.88;14.52;;;14.00;61.90;;;;;;4807595;29;20032;-79
2021/10/10 09:47:57;;;;;;;29.00;15.20;;;13.90;61.30;;;;;;4823525;29;20054;-79
2021/10/10 09:50:25;;;;;;;30.35;14.82;;;13.90;62.10;;;;;;4795586;29;20035;-79
2021/10/10 09:53:05;;;;;;;26.58;13.63;;;13.90;59.90;;;;;;4787235;30;20337;-79
2021/10/10 09:55:33;;;;;;;40.05;14.95;;;14.00;62.10;;;;;;4782332;29;20047;-80
2021/10/10 09:57:59;;;;;;;35.97;13.57;;;14.20;62.10;;;;;;4774140;29;20105;-80
2021/10/10 10:00:28;;;;;;;32.72;14.93;;;14.30;59.30;;;;;;4793522;29;20039;-81
2021/10/10 10:03:11;;;;;;;30.80;15.05;;;14.20;58.60;;;;;;4796335;29;20046;-80
2021/10/10 10:05:38;;;;;;;29.95;14.65;;;14.10;61.00;;;;;;4796063;29;20034;-79
2021/10/10 10:08:05;;;;;;;29.27;14.20;;;14.10;61.10;;;;;;4795722;29;20043;-79
2021/10/10 10:10:33;;;;;;;32.45;14.35;;;14.20;60.80;;;;;;4810629;29;20042;-79
2021/10/10 10:13:01;;;;;;;35.13;13.75;;;14.30;59.80;;;;;;4810649;29;20081;-79
2021/10/10 10:15:29;;;;;;;29.20;13.80;;;14.60;60.60;;;;;;4811433;29;20036;-79
2021/10/10 10:17:56;;;;;;;45.78;14.75;;;14.80;59.20;;;;;;4797833;29;20082;-79
2021/10/10 10:20:23;;;;;;;;;;;14.90;59.40;;;;;;4798474;29;20042;-79
2021/10/10 10:22:52;;;;;;;34.40;14.25;;;15.00;58.30;;;;;;4798601;29;19913;-79
2021/10/10 10:25:18;;;;;;;43.15;13.40;;;15.00;57.70;;;;;;4798532;29;20088;-79
2021/10/10 10:27:44;;;;;;;35.73;13.67;;;15.00;57.80;;;;;;4789684;29;20091;-79
2021/10/10 10:30:10;;;;;;;31.00;13.80;;;15.00;58.80;;;;;;4780235;30;20031;-79
2021/10/10 10:32:36;;;;;;;33.75;13.65;;;15.10;56.10;;;;;;4780267;29;20040;-80
2021/10/10 10:35:14;;;;;;;30.30;13.63;;;15.00;56.30;;;;;;4780488;29;20042;-80
2021/10/10 10:37:43;;;;;;;32.85;12.95;;;15.00;56.70;;;;;;4772959;29;20387;-80
2021/10/10 10:40:15;;;;;;;28.90;12.73;;;15.10;56.30;;;;;;4787770;29;20040;-79
2021/10/10 10:42:51;;;;;;;29.88;11.85;;;15.20;56.60;;;;;;4782684;30;20117;-80
2021/10/10 10:45:18;;;;;;;29.30;12.57;;;15.30;56.50;;;;;;4794957;29;20031;-80
2021/10/10 10:47:44;;;;;;;33.72;13.10;;;15.40;56.90;;;;;;4812043;29;20102;-78
2021/10/10 10:50:23;;;;;;;33.03;12.45;;;15.40;55.90;;;;;;4808300;29;20023;-78
2021/10/10 10:53:03;;;;;;;32.17;12.55;;;15.50;55.00;;;;;;4789981;29;20069;-78
2021/10/10 10:55:35;;;;;;;33.42;12.25;;;15.40;54.50;;;;;;4776485;30;20030;-80
2021/10/10 10:58:11;;;;;;;30.65;13.50;;;15.40;54.80;;;;;;4794228;29;20122;-79
2021/10/10 11:00:38;;;;;;;25.17;11.70;;;15.40;54.20;;;;;;4786084;29;20327;-79
2021/10/10 11:03:11;;;;;;;25.08;11.23;;;15.40;54.30;;;;;;4809194;29;20227;-79
2021/10/10 11:05:54;;;;;;;27.33;12.20;;;15.50;54.80;;;;;;4807369;29;20223;-79
2021/10/10 11:08:26;;;;;;;21.05;11.98;;;15.60;53.10;;;;;;4763440;30;20036;-79
2021/10/10 11:11:15;;;;;;;24.40;11.55;;;15.50;53.00;;;;;;4808957;29;20027;-79
2021/10/10 11:13:43;;;;;;;32.22;12.27;;;15.30;53.30;;;;;;4792611;29;20027;-79
2021/10/10 11:16:15;;;;;;;31.92;12.52;;;15.30;53.30;;;;;;4795747;29;20243;-79
2021/10/10 11:18:46;;;;;;;28.42;11.32;;;15.40;55.40;;;;;;4794440;29;20103;-80
2021/10/10 11:21:14;;;;;;;24.45;12.73;;;15.50;54.70;;;;;;4776621;30;20219;-79
2021/10/10 11:23:40;;;;;;;35.50;12.50;;;15.50;54.70;;;;;;4793916;29;20036;-79
2021/10/10 11:26:09;;;;;;;21.30;11.17;;;15.60;55.40;;;;;;4782327;30;20024;-79
2021/10/10 11:28:44;;;;;;;34.47;11.95;;;15.50;53.10;;;;;;4791109;29;20039;-79
2021/10/10 11:31:17;;;;;;;27.23;11.77;;;15.30;53.90;;;;;;4811662;29;20023;-79
2021/10/10 11:33:55;;;;;;;28.35;13.20;;;15.30;53.40;;;;;;4809037;29;20035;-79
2021/10/10 11:36:40;;;;;;;28.38;13.00;;;15.30;53.40;;;;;;4798802;29;20134;-78
2021/10/10 11:39:23;;;;;;;33.13;13.27;;;15.10;55.10;;;;;;4793906;29;20098;-79
2021/10/10 11:42:10;;;;;;;24.88;12.38;;;15.00;56.00;;;;;;4797266;29;20133;-79
2021/10/10 11:44:39;;;;;;;31.65;12.25;;;15.00;55.50;;;;;;4797066;29;20054;-79
2021/10/10 11:47:08;;;;;;;21.50;11.15;;;14.80;55.00;;;;;;4794816;29;20063;-79
2021/10/10 11:49:40;;;;;;;26.98;11.32;;;14.70;57.20;;;;;;4808714;29;20019;-79
2021/10/10 11:54:54;;;;;;;29.75;11.50;;;14.70;57.40;;;;;;4807239;29;20361;-79
2021/10/10 11:57:19;;;;;;;26.35;12.07;;;14.80;56.60;;;;;;4795739;29;20035;-79
2021/10/10 11:59:53;;;;;;;32.05;13.55;;;14.90;56.20;;;;;;4788918;29;20058;-79
2021/10/10 12:02:20;;;;;;;30.17;13.10;;;14.90;56.20;;;;;;4791951;29;20073;-79
2021/10/10 12:04:46;;;;;;;22.40;12.30;;;15.00;57.50;;;;;;4781885;29;20043;-79
2021/10/10 12:07:13;;;;;;;31.93;14.17;;;15.10;56.30;;;;;;4811533;29;20084;-79
2021/10/10 12:09:51;;;;;;;33.90;12.48;;;15.30;57.30;;;;;;4793340;29;20438;-79
2021/10/10 12:12:19;;;;;;;24.83;11.82;;;15.60;57.00;;;;;;4796280;29;20042;-79
2021/10/10 12:14:49;;;;;;;29.00;11.77;;;15.80;55.70;;;;;;4778242;30;20035;-79
2021/10/10 12:17:35;;;;;;;25.75;12.68;;;15.80;56.30;;;;;;4779139;30;20055;-79
2021/10/10 12:20:23;;;;;;;28.03;12.60;;;15.80;56.00;;;;;;4780320;30;20149;-79
2021/10/10 12:22:59;;;;;;;38.53;12.93;;;15.70;56.50;;;;;;4754688;30;20047;-78
2021/10/10 12:25:42;;;;;;;21.48;11.90;;;15.60;56.40;;;;;;4748120;30;20043;-79
2021/10/10 12:28:17;;;;;;;30.05;12.10;;;15.50;57.10;;;;;;4762495;30;20106;-79
2021/10/10 12:30:54;;;;;;;33.42;12.60;;;15.50;56.00;;;;;;4747945;30;20047;-79
2021/10/10 12:33:30;;;;;;;22.88;11.45;;;15.40;57.30;;;;;;4751595;30;20146;-79
2021/10/10 12:35:59;;;;;;;24.17;11.88;;;15.60;56.50;;;;;;4779997;30;20323;-79
2021/10/10 12:38:39;;;;;;;36.65;13.27;;;15.80;57.90;;;;;;4780131;30;20160;-79
2021/10/10 12:41:20;;;;;;;28.83;13.45;;;16.00;58.70;;;;;;4765329;30;20098;-79
2021/10/10 12:43:52;;;;;;;31.02;13.20;;;16.20;56.90;;;;;;4780024;30;20088;-79
2021/10/10 12:46:21;;;;;;;29.52;13.32;;;16.00;55.40;;;;;;4792449;29;20068;-79
2021/10/10 12:49:01;;;;;;;25.63;12.05;;;15.80;55.80;;;;;;4765269;30;20039;-79
2021/10/10 12:51:28;;;;;;;28.38;12.52;;;15.70;57.00;;;;;;4773193;30;20023;-79
2021/10/10 12:54:20;;;;;;;30.87;12.83;;;15.50;56.70;;;;;;4763149;30;20039;-79
2021/10/10 12:57:17;;;;;;;29.20;14.02;;;15.50;57.10;;;;;;4775677;30;20059;-79
2021/10/10 13:00:15;;;;;;;32.95;14.10;;;15.50;55.00;;;;;;4759692;30;20071;-79
2021/10/10 13:02:42;;;;;;;28.80;12.65;;;15.40;57.10;;;;;;4754555;30;20335;-80
2021/10/10 13:05:08;;;;;;;40.47;13.95;;;15.30;55.70;;;;;;4744806;30;20107;-80
2021/10/10 13:07:34;;;;;;;24.88;12.93;;;15.30;56.80;;;;;;4759449;30;20055;-79
2021/10/10 13:10:00;;;;;;;30.48;13.32;;;15.40;57.10;;;;;;4759101;30;20103;-79
2021/10/10 13:12:25;;;;;;;24.30;13.68;;;15.40;56.90;;;;;;4744846;30;20074;-79
2021/10/10 13:14:51;;;;;;;31.13;13.52;;;15.50;57.40;;;;;;4744825;30;20061;-79
2021/10/10 13:17:17;;;;;;;29.73;13.90;;;15.50;57.20;;;;;;4762503;30;20040;-79
2021/10/10 13:19:43;;;;;;;29.40;13.38;;;15.60;57.50;;;;;;4743356;30;20131;-79
2021/10/10 13:22:10;;;;;;;34.72;14.63;;;15.60;56.40;;;;;;4743963;30;20291;-79
2021/10/10 13:24:35;;;;;;;23.75;14.05;;;15.60;56.30;;;;;;4743974;30;20063;-79
2021/10/10 13:27:01;;;;;;;32.13;14.13;;;15.50;55.70;;;;;;4743733;30;20056;-79
2021/10/10 13:29:27;;;;;;;32.78;14.15;;;15.40;56.90;;;;;;4741590;30;20196;-80
2021/10/10 13:31:53;;;;;;;33.83;13.93;;;15.30;57.10;;;;;;4745118;30;20044;-79
2021/10/10 13:34:19;;;;;;;33.58;15.00;;;15.20;57.50;;;;;;4767823;30;20122;-79
2021/10/10 13:36:49;;;;;;;33.93;14.00;;;15.10;57.60;;;;;;4734942;30;20035;-79
2021/10/10 13:39:16;;;;;;;27.23;14.15;;;15.10;57.90;;;;;;4746653;30;20620;-79
2021/10/10 13:41:42;;;;;;;26.27;12.60;;;15.20;58.50;;;;;;4780443;30;20031;-79
2021/10/10 13:44:08;;;;;;;30.75;13.15;;;15.30;56.20;;;;;;4765225;30;20023;-79
2021/10/10 13:46:37;;;;;;;26.83;13.40;;;15.20;56.70;;;;;;4767769;30;20091;-79
2021/10/10 13:49:04;;;;;;;31.80;12.82;;;15.20;56.90;;;;;;4776783;30;20087;-79
2021/10/10 13:51:30;;;;;;;;;;;15.20;57.70;;;;;;4777089;30;20032;-79
2021/10/10 13:53:56;;;;;;;44.25;15.63;;;15.10;57.50;;;;;;4792907;29;19917;-79
2021/10/10 13:56:22;;;;;;;29.35;13.75;;;15.00;57.10;;;;;;4777302;29;20107;-79
2021/10/10 13:58:48;;;;;;;35.50;14.20;;;15.00;57.60;;;;;;4777512;29;20078;-79
2021/10/10 14:01:14;;;;;;;30.70;12.77;;;14.90;58.10;;;;;;4787932;29;20039;-79
2021/10/10 14:03:41;;;;;;;35.67;13.45;;;14.90;58.20;;;;;;4780307;30;20035;-79
2021/10/10 14:06:08;;;;;;;27.88;14.02;;;15.00;58.30;;;;;;4782839;30;20039;-79
2021/10/10 14:08:33;;;;;;;27.75;12.90;;;15.00;58.80;;;;;;4789351;29;20466;-79
2021/10/10 14:10:59;;;;;;;27.67;13.88;;;14.90;58.00;;;;;;4810381;29;20118;-79
2021/10/10 14:13:25;;;;;;;24.50;13.82;;;14.90;58.10;;;;;;4799480;29;20028;-79
2021/10/10 14:15:52;;;;;;;30.75;13.05;;;14.80;59.20;;;;;;4783252;30;20034;-79
2021/10/10 14:18:19;;;;;;;30.92;12.60;;;14.80;59.10;;;;;;4780029;29;20039;-80
2021/10/10 14:20:45;;;;;;;;;;;14.80;58.50;;;;;;4810183;29;20035;-80
2021/10/10 14:23:12;;;;;;;26.73;12.45;;;14.80;58.80;;;;;;4809929;29;19945;-80
2021/10/10 14:25:40;;;;;;;34.05;13.48;;;14.80;58.00;;;;;;4778712;29;20063;-80
2021/10/10 14:28:06;;;;;;;27.80;14.18;;;14.70;58.00;;;;;;4794312;29;20111;-80
2021/10/10 14:30:33;;;;;;;32.55;13.07;;;14.60;58.80;;;;;;4809764;29;20019;-80
2021/10/10 14:32:59;;;;;;;25.90;13.07;;;14.60;58.70;;;;;;4794867;29;20028;-80
2021/10/10 14:35:24;;;;;;;26.80;12.52;;;14.50;58.50;;;;;;4789865;29;20289;-80
2021/10/10 14:37:50;;;;;;;27.85;12.82;;;14.50;58.10;;;;;;4799967;29;20071;-80
2021/10/10 14:40:17;;;;;;;27.48;11.88;;;14.50;58.50;;;;;;4810921;29;20031;-80
2021/10/10 14:43:05;;;;;;;32.73;11.90;;;14.50;59.00;;;;;;4782036;29;20239;-80
2021/10/10 14:45:35;;;;;;;29.42;13.13;;;14.50;57.80;;;;;;4796373;29;20618;-80
2021/10/10 14:48:10;;;;;;;35.25;13.13;;;14.40;57.50;;;;;;4792696;29;20089;-80
2021/10/10 14:50:39;;;;;;;23.25;12.18;;;14.40;58.10;;;;;;4783654;29;20119;-80
2021/10/10 14:53:08;;;;;;;22.77;11.32;;;14.40;58.50;;;;;;4784215;30;20081;-80
2021/10/10 14:55:34;;;;;;;24.70;12.68;;;14.30;58.60;;;;;;4779450;29;20019;-80
2021/10/10 14:58:01;;;;;;;30.88;13.27;;;14.30;58.00;;;;;;4783019;29;20293;-80
2021/10/10 15:00:26;;;;;;;25.67;12.10;;;14.30;59.10;;;;;;4811980;29;20358;-80
2021/10/10 15:02:52;;;;;;;28.48;12.88;;;14.20;58.40;;;;;;4793917;29;20039;-80
2021/10/10 15:05:19;;;;;;;25.92;11.75;;;14.30;58.90;;;;;;4814511;29;20035;-80
2021/10/10 15:07:49;;;;;;;28.40;12.82;;;14.30;59.00;;;;;;4794588;29;20243;-80
2021/10/10 15:10:15;;;;;;;25.50;13.25;;;14.30;59.30;;;;;;4797600;29;20311;-80
2021/10/10 15:12:40;;;;;;;29.52;12.52;;;14.20;59.20;;;;;;4782301;30;20031;-80
2021/10/10 15:15:08;;;;;;;30.48;12.77;;;14.20;60.10;;;;;;4785010;29;20058;-80
2021/10/10 15:17:35;;;;;;;30.63;12.43;;;14.20;60.00;;;;;;4778761;29;20438;-80
2021/10/10 15:20:03;;;;;;;35.05;13.20;;;14.20;60.50;;;;;;4778088;29;20040;-80
2021/10/10 15:22:33;;;;;;;26.42;12.75;;;14.20;60.80;;;;;;4793143;30;20039;-80
2021/10/10 15:25:00;;;;;;;35.03;13.75;;;14.20;60.10;;;;;;4796807;29;20051;-80
2021/10/10 15:27:26;;;;;;;29.65;13.65;;;14.10;60.30;;;;;;4782405;29;20277;-80
2021/10/10 15:29:51;;;;;;;28.55;13.48;;;14.20;60.60;;;;;;4781668;30;20043;-80
2021/10/10 15:32:19;;;;;;;27.65;12.43;;;14.10;61.10;;;;;;4795904;30;20035;-81
2021/10/10 15:34:48;;;;;;;32.60;13.65;;;14.00;60.90;;;;;;4796472;29;20050;-80
2021/10/10 15:37:14;;;;;;;32.58;17.65;;;14.00;61.00;;;;;;4788645;29;20219;-80